sensor_id;sensor_type;location;lat;lon;timestamp;P1;durP1;ratioP1;P2;durP2;ratioP2
11346;SDS011;5728;42.722;23.258;2022-08-01T00:01:13;3.85;;;2.90;;
11346;SDS011;5728;42.722;23.258;2022-08-01T00:03:40;3.60;;;3.00;;
11346;SDS011;5728;42.722;23.258;2022-08-01T00:06:08;3.38;;;2.90;;
11346;SDS011;5728;42.722;23.258;2022-08-01T00:08:35;4.32;;;3.20;;
11346;SDS011;5728;42.722;23.258;2022-08-01T00:11:02;3.08;;;2.75;;
11346;SDS011;5728;42.722;23.258;2022-08-01T00:13:28;4.38;;;2.72;;
11346;SDS011;5728;42.722;23.258;2022-08-01T00:15:55;5.25;;;2.80;;
11346;SDS011;5728;42.722;23.258;2022-08-01T00:18:22;4.40;;;3.17;;
11346;SDS011;5728;42.722;23.258;2022-08-01T00:20:49;3.55;;;3.03;;
11346;SDS011;5728;42.722;23.258;2022-08-01T00:23:17;3.65;;;3.35;;
11346;SDS011;5728;42.722;23.258;2022-08-01T00:25:44;4.00;;;3.53;;
11346;SDS011;5728;42.722;23.258;2022-08-01T00:28:11;4.03;;;3.63;;
11346;SDS011;5728;42.722;23.258;2022-08-01T00:30:38;4.47;;;3.20;;
11346;SDS011;5728;42.722;23.258;2022-08-01T00:33:05;8.55;;;3.78;;
11346;SDS011;5728;42.722;23.258;2022-08-01T00:35:32;4.55;;;3.75;;
11346;SDS011;5728;42.722;23.258;2022-08-01T00:37:58;4.38;;;4.03;;
11346;SDS011;5728;42.722;23.258;2022-08-01T00:40:27;7.85;;;4.00;;
11346;SDS011;5728;42.722;23.258;2022-08-01T00:42:53;6.93;;;4.40;;
11346;SDS011;5728;42.722;23.258;2022-08-01T00:45:20;4.90;;;4.40;;
11346;SDS011;5728;42.722;23.258;2022-08-01T00:47:47;9.55;;;4.03;;
11346;SDS011;5728;42.722;23.258;2022-08-01T00:50:14;7.32;;;4.10;;
11346;SDS011;5728;42.722;23.258;2022-08-01T00:52:41;5.13;;;4.20;;
11346;SDS011;5728;42.722;23.258;2022-08-01T00:55:10;14.45;;;4.20;;
11346;SDS011;5728;42.722;23.258;2022-08-01T00:57:40;8.82;;;4.53;;
11346;SDS011;5728;42.722;23.258;2022-08-01T01:00:07;6.30;;;4.18;;
11346;SDS011;5728;42.722;23.258;2022-08-01T01:02:34;4.00;;;3.70;;
11346;SDS011;5728;42.722;23.258;2022-08-01T01:05:01;3.90;;;3.60;;
11346;SDS011;5728;42.722;23.258;2022-08-01T01:07:30;5.15;;;4.00;;
11346;SDS011;5728;42.722;23.258;2022-08-01T01:10:02;4.10;;;3.70;;
11346;SDS011;5728;42.722;23.258;2022-08-01T01:12:36;4.00;;;3.50;;
11346;SDS011;5728;42.722;23.258;2022-08-01T01:15:14;3.95;;;3.60;;
11346;SDS011;5728;42.722;23.258;2022-08-01T01:17:45;5.20;;;3.15;;
11346;SDS011;5728;42.722;23.258;2022-08-01T01:20:16;3.55;;;3.15;;
11346;SDS011;5728;42.722;23.258;2022-08-01T01:22:53;3.45;;;3.15;;
11346;SDS011;5728;42.722;23.258;2022-08-01T01:25:41;5.35;;;3.13;;
11346;SDS011;5728;42.722;23.258;2022-08-01T01:28:35;3.95;;;3.13;;
11346;SDS011;5728;42.722;23.258;2022-08-01T01:31:13;4.97;;;3.20;;
11346;SDS011;5728;42.722;23.258;2022-08-01T01:33:43;3.53;;;3.22;;
11346;SDS011;5728;42.722;23.258;2022-08-01T01:36:10;3.47;;;3.17;;
11346;SDS011;5728;42.722;23.258;2022-08-01T01:38:40;3.80;;;3.33;;
11346;SDS011;5728;42.722;23.258;2022-08-01T01:41:11;6.35;;;3.40;;
11346;SDS011;5728;42.722;23.258;2022-08-01T01:43:39;3.60;;;3.03;;
11346;SDS011;5728;42.722;23.258;2022-08-01T01:46:07;7.33;;;2.77;;
11346;SDS011;5728;42.722;23.258;2022-08-01T01:48:37;3.33;;;2.85;;
11346;SDS011;5728;42.722;23.258;2022-08-01T01:51:06;3.20;;;2.83;;
11346;SDS011;5728;42.722;23.258;2022-08-01T01:53:34;3.05;;;2.70;;
11346;SDS011;5728;42.722;23.258;2022-08-01T01:56:02;2.53;;;2.20;;
11346;SDS011;5728;42.722;23.258;2022-08-01T01:58:30;4.82;;;2.80;;
11346;SDS011;5728;42.722;23.258;2022-08-01T02:00:59;2.58;;;2.38;;
11346;SDS011;5728;42.722;23.258;2022-08-01T02:03:27;2.80;;;2.60;;
11346;SDS011;5728;42.722;23.258;2022-08-01T02:05:56;11.52;;;3.22;;
11346;SDS011;5728;42.722;23.258;2022-08-01T02:08:24;2.65;;;2.30;;
11346;SDS011;5728;42.722;23.258;2022-08-01T02:10:51;3.78;;;3.08;;
11346;SDS011;5728;42.722;23.258;2022-08-01T02:13:38;4.22;;;2.50;;
11346;SDS011;5728;42.722;23.258;2022-08-01T02:16:08;3.50;;;2.45;;
11346;SDS011;5728;42.722;23.258;2022-08-01T02:18:36;2.90;;;2.28;;
11346;SDS011;5728;42.722;23.258;2022-08-01T02:21:05;6.25;;;2.35;;
11346;SDS011;5728;42.722;23.258;2022-08-01T02:23:37;2.28;;;2.03;;
11346;SDS011;5728;42.722;23.258;2022-08-01T02:26:07;4.22;;;2.28;;
11346;SDS011;5728;42.722;23.258;2022-08-01T02:28:38;3.55;;;2.38;;
11346;SDS011;5728;42.722;23.258;2022-08-01T02:31:11;2.33;;;2.13;;
11346;SDS011;5728;42.722;23.258;2022-08-01T02:33:40;4.47;;;3.30;;
11346;SDS011;5728;42.722;23.258;2022-08-01T02:36:11;4.03;;;3.40;;
11346;SDS011;5728;42.722;23.258;2022-08-01T02:38:40;7.38;;;3.78;;
11346;SDS011;5728;42.722;23.258;2022-08-01T02:41:10;4.07;;;3.33;;
11346;SDS011;5728;42.722;23.258;2022-08-01T02:43:47;3.95;;;2.53;;
11346;SDS011;5728;42.722;23.258;2022-08-01T02:46:17;3.47;;;2.97;;
11346;SDS011;5728;42.722;23.258;2022-08-01T02:48:49;6.03;;;3.25;;
11346;SDS011;5728;42.722;23.258;2022-08-01T02:51:20;3.53;;;2.90;;
11346;SDS011;5728;42.722;23.258;2022-08-01T02:53:49;6.78;;;3.28;;
11346;SDS011;5728;42.722;23.258;2022-08-01T02:56:18;3.58;;;2.75;;
11346;SDS011;5728;42.722;23.258;2022-08-01T02:58:47;4.68;;;3.15;;
11346;SDS011;5728;42.722;23.258;2022-08-01T03:01:16;5.88;;;3.38;;
11346;SDS011;5728;42.722;23.258;2022-08-01T03:03:44;5.60;;;3.17;;
11346;SDS011;5728;42.722;23.258;2022-08-01T03:06:12;6.07;;;3.38;;
11346;SDS011;5728;42.722;23.258;2022-08-01T03:08:42;4.25;;;3.30;;
11346;SDS011;5728;42.722;23.258;2022-08-01T03:11:11;3.50;;;3.20;;
11346;SDS011;5728;42.722;23.258;2022-08-01T03:13:40;3.08;;;2.78;;
11346;SDS011;5728;42.722;23.258;2022-08-01T03:16:09;3.72;;;3.35;;
11346;SDS011;5728;42.722;23.258;2022-08-01T03:18:37;4.93;;;3.13;;
11346;SDS011;5728;42.722;23.258;2022-08-01T03:21:07;5.95;;;3.35;;
11346;SDS011;5728;42.722;23.258;2022-08-01T03:23:37;4.90;;;3.40;;
11346;SDS011;5728;42.722;23.258;2022-08-01T03:26:08;8.45;;;3.50;;
11346;SDS011;5728;42.722;23.258;2022-08-01T03:28:35;6.45;;;3.25;;
11346;SDS011;5728;42.722;23.258;2022-08-01T03:31:04;7.68;;;4.22;;
11346;SDS011;5728;42.722;23.258;2022-08-01T03:33:31;6.88;;;4.22;;
11346;SDS011;5728;42.722;23.258;2022-08-01T03:35:58;7.13;;;3.90;;
11346;SDS011;5728;42.722;23.258;2022-08-01T03:38:26;4.55;;;3.85;;
11346;SDS011;5728;42.722;23.258;2022-08-01T03:41:02;7.33;;;4.30;;
11346;SDS011;5728;42.722;23.258;2022-08-01T03:43:38;5.63;;;4.10;;
11346;SDS011;5728;42.722;23.258;2022-08-01T03:46:08;4.78;;;4.32;;
11346;SDS011;5728;42.722;23.258;2022-08-01T03:48:39;4.63;;;4.15;;
11346;SDS011;5728;42.722;23.258;2022-08-01T03:51:09;8.07;;;3.50;;
11346;SDS011;5728;42.722;23.258;2022-08-01T03:53:37;7.80;;;3.55;;
11346;SDS011;5728;42.722;23.258;2022-08-01T03:56:05;5.40;;;3.88;;
11346;SDS011;5728;42.722;23.258;2022-08-01T03:58:34;6.43;;;4.38;;
11346;SDS011;5728;42.722;23.258;2022-08-01T04:01:05;4.95;;;4.00;;
11346;SDS011;5728;42.722;23.258;2022-08-01T04:03:32;11.57;;;4.53;;
11346;SDS011;5728;42.722;23.258;2022-08-01T04:05:59;13.02;;;5.32;;
11346;SDS011;5728;42.722;23.258;2022-08-01T04:08:39;9.02;;;5.35;;
11346;SDS011;5728;42.722;23.258;2022-08-01T04:11:07;8.70;;;4.85;;
11346;SDS011;5728;42.722;23.258;2022-08-01T04:13:35;7.82;;;5.45;;
11346;SDS011;5728;42.722;23.258;2022-08-01T04:16:03;10.13;;;6.35;;
11346;SDS011;5728;42.722;23.258;2022-08-01T04:18:30;9.55;;;6.25;;
11346;SDS011;5728;42.722;23.258;2022-08-01T04:20:57;15.23;;;7.20;;
11346;SDS011;5728;42.722;23.258;2022-08-01T04:23:24;13.88;;;7.20;;
11346;SDS011;5728;42.722;23.258;2022-08-01T04:25:53;17.00;;;7.38;;
11346;SDS011;5728;42.722;23.258;2022-08-01T04:28:22;11.23;;;7.07;;
11346;SDS011;5728;42.722;23.258;2022-08-01T04:30:51;10.45;;;6.97;;
11346;SDS011;5728;42.722;23.258;2022-08-01T04:33:21;13.00;;;7.10;;
11346;SDS011;5728;42.722;23.258;2022-08-01T04:35:50;12.88;;;7.72;;
11346;SDS011;5728;42.722;23.258;2022-08-01T04:38:20;13.35;;;7.20;;
11346;SDS011;5728;42.722;23.258;2022-08-01T04:40:52;11.70;;;6.65;;
11346;SDS011;5728;42.722;23.258;2022-08-01T04:43:21;15.10;;;7.68;;
11346;SDS011;5728;42.722;23.258;2022-08-01T04:45:48;11.13;;;6.65;;
11346;SDS011;5728;42.722;23.258;2022-08-01T04:48:18;11.35;;;5.10;;
11346;SDS011;5728;42.722;23.258;2022-08-01T04:50:45;6.32;;;5.22;;
11346;SDS011;5728;42.722;23.258;2022-08-01T04:53:13;11.85;;;4.80;;
11346;SDS011;5728;42.722;23.258;2022-08-01T04:55:41;13.52;;;5.07;;
11346;SDS011;5728;42.722;23.258;2022-08-01T04:58:08;9.77;;;5.15;;
11346;SDS011;5728;42.722;23.258;2022-08-01T05:00:36;9.20;;;4.97;;
11346;SDS011;5728;42.722;23.258;2022-08-01T05:03:04;7.30;;;5.38;;
11346;SDS011;5728;42.722;23.258;2022-08-01T05:05:31;8.02;;;5.25;;
11346;SDS011;5728;42.722;23.258;2022-08-01T05:07:58;10.77;;;4.80;;
11346;SDS011;5728;42.722;23.258;2022-08-01T05:10:25;12.30;;;4.70;;
11346;SDS011;5728;42.722;23.258;2022-08-01T05:12:52;7.03;;;4.68;;
11346;SDS011;5728;42.722;23.258;2022-08-01T05:15:19;5.70;;;4.85;;
11346;SDS011;5728;42.722;23.258;2022-08-01T05:17:46;9.32;;;4.80;;
11346;SDS011;5728;42.722;23.258;2022-08-01T05:20:14;7.68;;;4.75;;
11346;SDS011;5728;42.722;23.258;2022-08-01T05:22:41;8.90;;;4.82;;
11346;SDS011;5728;42.722;23.258;2022-08-01T05:25:08;10.50;;;4.30;;
11346;SDS011;5728;42.722;23.258;2022-08-01T05:27:36;5.25;;;4.38;;
11346;SDS011;5728;42.722;23.258;2022-08-01T05:30:05;8.88;;;4.72;;
11346;SDS011;5728;42.722;23.258;2022-08-01T05:32:33;8.35;;;4.50;;
11346;SDS011;5728;42.722;23.258;2022-08-01T05:35:00;10.63;;;4.70;;
11346;SDS011;5728;42.722;23.258;2022-08-01T05:37:29;9.45;;;4.30;;
11346;SDS011;5728;42.722;23.258;2022-08-01T05:39:55;7.20;;;4.15;;
11346;SDS011;5728;42.722;23.258;2022-08-01T05:42:22;6.93;;;3.90;;
11346;SDS011;5728;42.722;23.258;2022-08-01T05:44:49;3.85;;;3.30;;
11346;SDS011;5728;42.722;23.258;2022-08-01T05:47:16;6.80;;;3.78;;
11346;SDS011;5728;42.722;23.258;2022-08-01T05:49:43;8.80;;;3.50;;
11346;SDS011;5728;42.722;23.258;2022-08-01T05:52:10;8.98;;;3.65;;
11346;SDS011;5728;42.722;23.258;2022-08-01T05:54:38;5.38;;;3.42;;
11346;SDS011;5728;42.722;23.258;2022-08-01T05:57:05;4.68;;;3.40;;
11346;SDS011;5728;42.722;23.258;2022-08-01T05:59:32;4.00;;;3.40;;
11346;SDS011;5728;42.722;23.258;2022-08-01T06:01:58;7.38;;;3.47;;
11346;SDS011;5728;42.722;23.258;2022-08-01T06:04:26;5.90;;;3.00;;
11346;SDS011;5728;42.722;23.258;2022-08-01T06:06:52;5.93;;;3.08;;
11346;SDS011;5728;42.722;23.258;2022-08-01T06:09:19;2.92;;;2.63;;
11346;SDS011;5728;42.722;23.258;2022-08-01T06:11:47;2.85;;;2.65;;
11346;SDS011;5728;42.722;23.258;2022-08-01T06:14:14;4.20;;;2.50;;
11346;SDS011;5728;42.722;23.258;2022-08-01T06:16:41;4.68;;;2.33;;
11346;SDS011;5728;42.722;23.258;2022-08-01T06:19:07;3.65;;;2.80;;
11346;SDS011;5728;42.722;23.258;2022-08-01T06:21:34;3.28;;;2.45;;
11346;SDS011;5728;42.722;23.258;2022-08-01T06:24:01;2.83;;;2.40;;
11346;SDS011;5728;42.722;23.258;2022-08-01T06:26:28;3.50;;;2.17;;
11346;SDS011;5728;42.722;23.258;2022-08-01T06:28:57;3.83;;;2.55;;
11346;SDS011;5728;42.722;23.258;2022-08-01T06:31:25;9.90;;;2.42;;
11346;SDS011;5728;42.722;23.258;2022-08-01T06:33:52;4.15;;;2.60;;
11346;SDS011;5728;42.722;23.258;2022-08-01T06:36:19;3.00;;;2.55;;
11346;SDS011;5728;42.722;23.258;2022-08-01T06:38:45;2.58;;;2.38;;
11346;SDS011;5728;42.722;23.258;2022-08-01T06:41:12;3.78;;;2.78;;
11346;SDS011;5728;42.722;23.258;2022-08-01T06:43:39;3.25;;;2.40;;
11346;SDS011;5728;42.722;23.258;2022-08-01T06:46:07;9.00;;;3.17;;
11346;SDS011;5728;42.722;23.258;2022-08-01T06:48:34;6.38;;;2.42;;
11346;SDS011;5728;42.722;23.258;2022-08-01T06:51:04;3.88;;;2.45;;
11346;SDS011;5728;42.722;23.258;2022-08-01T06:53:33;2.80;;;2.08;;
11346;SDS011;5728;42.722;23.258;2022-08-01T06:56:01;3.75;;;2.78;;
11346;SDS011;5728;42.722;23.258;2022-08-01T06:58:28;3.50;;;2.50;;
11346;SDS011;5728;42.722;23.258;2022-08-01T07:00:55;3.20;;;2.70;;
11346;SDS011;5728;42.722;23.258;2022-08-01T07:03:23;4.57;;;2.45;;
11346;SDS011;5728;42.722;23.258;2022-08-01T07:05:50;2.75;;;2.40;;
11346;SDS011;5728;42.722;23.258;2022-08-01T07:08:16;4.05;;;2.50;;
11346;SDS011;5728;42.722;23.258;2022-08-01T07:10:43;2.83;;;2.10;;
11346;SDS011;5728;42.722;23.258;2022-08-01T07:13:10;2.88;;;2.20;;
11346;SDS011;5728;42.722;23.258;2022-08-01T07:15:37;2.30;;;2.10;;
11346;SDS011;5728;42.722;23.258;2022-08-01T07:18:04;4.43;;;2.25;;
11346;SDS011;5728;42.722;23.258;2022-08-01T07:20:32;2.25;;;2.05;;
11346;SDS011;5728;42.722;23.258;2022-08-01T07:22:59;3.17;;;1.83;;
11346;SDS011;5728;42.722;23.258;2022-08-01T07:25:25;3.58;;;2.10;;
11346;SDS011;5728;42.722;23.258;2022-08-01T07:27:52;3.90;;;2.10;;
11346;SDS011;5728;42.722;23.258;2022-08-01T07:30:19;6.00;;;2.55;;
11346;SDS011;5728;42.722;23.258;2022-08-01T07:32:46;3.15;;;2.25;;
11346;SDS011;5728;42.722;23.258;2022-08-01T07:35:13;2.88;;;2.33;;
11346;SDS011;5728;42.722;23.258;2022-08-01T07:37:41;5.50;;;2.20;;
11346;SDS011;5728;42.722;23.258;2022-08-01T07:40:08;2.95;;;2.45;;
11346;SDS011;5728;42.722;23.258;2022-08-01T07:42:36;4.13;;;2.25;;
11346;SDS011;5728;42.722;23.258;2022-08-01T07:45:03;2.75;;;2.42;;
11346;SDS011;5728;42.722;23.258;2022-08-01T07:47:30;3.33;;;2.42;;
11346;SDS011;5728;42.722;23.258;2022-08-01T07:50:00;3.40;;;2.70;;
11346;SDS011;5728;42.722;23.258;2022-08-01T07:52:28;5.25;;;2.30;;
11346;SDS011;5728;42.722;23.258;2022-08-01T07:54:56;5.32;;;2.90;;
11346;SDS011;5728;42.722;23.258;2022-08-01T07:57:23;3.22;;;2.20;;
11346;SDS011;5728;42.722;23.258;2022-08-01T07:59:51;4.50;;;2.08;;
11346;SDS011;5728;42.722;23.258;2022-08-01T08:02:18;2.25;;;2.05;;
11346;SDS011;5728;42.722;23.258;2022-08-01T08:04:44;2.33;;;2.13;;
11346;SDS011;5728;42.722;23.258;2022-08-01T08:07:11;2.50;;;2.28;;
11346;SDS011;5728;42.722;23.258;2022-08-01T08:09:38;2.40;;;2.17;;
11346;SDS011;5728;42.722;23.258;2022-08-01T08:12:07;2.65;;;2.42;;
11346;SDS011;5728;42.722;23.258;2022-08-01T08:14:34;2.63;;;2.42;;
11346;SDS011;5728;42.722;23.258;2022-08-01T08:17:00;3.53;;;2.72;;
11346;SDS011;5728;42.722;23.258;2022-08-01T08:19:27;2.85;;;2.42;;
11346;SDS011;5728;42.722;23.258;2022-08-01T08:21:54;2.28;;;1.75;;
11346;SDS011;5728;42.722;23.258;2022-08-01T08:24:21;2.40;;;2.20;;
11346;SDS011;5728;42.722;23.258;2022-08-01T08:26:49;4.18;;;2.80;;
11346;SDS011;5728;42.722;23.258;2022-08-01T08:29:19;3.63;;;2.10;;
11346;SDS011;5728;42.722;23.258;2022-08-01T08:31:46;8.45;;;2.45;;
11346;SDS011;5728;42.722;23.258;2022-08-01T08:34:14;6.13;;;2.47;;
11346;SDS011;5728;42.722;23.258;2022-08-01T08:36:40;3.70;;;1.92;;
11346;SDS011;5728;42.722;23.258;2022-08-01T08:39:07;4.38;;;2.25;;
11346;SDS011;5728;42.722;23.258;2022-08-01T08:41:34;2.20;;;2.10;;
11346;SDS011;5728;42.722;23.258;2022-08-01T08:44:02;2.67;;;2.33;;
11346;SDS011;5728;42.722;23.258;2022-08-01T08:46:30;3.10;;;2.35;;
11346;SDS011;5728;42.722;23.258;2022-08-01T08:48:59;8.10;;;2.67;;
11346;SDS011;5728;42.722;23.258;2022-08-01T08:51:30;2.47;;;2.28;;
11346;SDS011;5728;42.722;23.258;2022-08-01T08:53:58;2.63;;;2.10;;
11346;SDS011;5728;42.722;23.258;2022-08-01T08:56:25;2.63;;;2.42;;
11346;SDS011;5728;42.722;23.258;2022-08-01T08:58:54;4.22;;;2.70;;
11346;SDS011;5728;42.722;23.258;2022-08-01T09:01:22;3.05;;;2.30;;
11346;SDS011;5728;42.722;23.258;2022-08-01T09:03:50;4.65;;;2.10;;
11346;SDS011;5728;42.722;23.258;2022-08-01T09:06:17;2.25;;;2.05;;
11346;SDS011;5728;42.722;23.258;2022-08-01T09:08:44;2.95;;;1.95;;
11346;SDS011;5728;42.722;23.258;2022-08-01T09:11:11;4.40;;;2.15;;
11346;SDS011;5728;42.722;23.258;2022-08-01T09:13:38;3.97;;;2.20;;
11346;SDS011;5728;42.722;23.258;2022-08-01T09:16:05;2.28;;;2.08;;
11346;SDS011;5728;42.722;23.258;2022-08-01T09:18:32;2.13;;;1.92;;
11346;SDS011;5728;42.722;23.258;2022-08-01T09:21:11;3.28;;;1.83;;
11346;SDS011;5728;42.722;23.258;2022-08-01T09:23:41;3.70;;;2.22;;
11346;SDS011;5728;42.722;23.258;2022-08-01T09:26:11;4.38;;;2.45;;
11346;SDS011;5728;42.722;23.258;2022-08-01T09:28:38;2.33;;;2.13;;
11346;SDS011;5728;42.722;23.258;2022-08-01T09:31:07;4.50;;;1.98;;
11346;SDS011;5728;42.722;23.258;2022-08-01T09:33:48;3.53;;;2.40;;
11346;SDS011;5728;42.722;23.258;2022-08-01T09:36:18;3.70;;;1.83;;
11346;SDS011;5728;42.722;23.258;2022-08-01T09:38:46;2.65;;;2.10;;
11346;SDS011;5728;42.722;23.258;2022-08-01T09:41:13;4.55;;;2.67;;
11346;SDS011;5728;42.722;23.258;2022-08-01T09:43:40;2.47;;;2.28;;
11346;SDS011;5728;42.722;23.258;2022-08-01T09:46:14;4.78;;;2.78;;
11346;SDS011;5728;42.722;23.258;2022-08-01T09:48:42;2.15;;;1.92;;
11346;SDS011;5728;42.722;23.258;2022-08-01T09:51:28;4.68;;;2.03;;
11346;SDS011;5728;42.722;23.258;2022-08-01T09:53:56;2.38;;;2.17;;
11346;SDS011;5728;42.722;23.258;2022-08-01T09:56:24;6.80;;;2.22;;
11346;SDS011;5728;42.722;23.258;2022-08-01T09:58:52;2.40;;;2.13;;
11346;SDS011;5728;42.722;23.258;2022-08-01T10:01:20;2.95;;;2.67;;
11346;SDS011;5728;42.722;23.258;2022-08-01T10:04:03;4.00;;;2.10;;
11346;SDS011;5728;42.722;23.258;2022-08-01T10:06:32;4.25;;;2.20;;
11346;SDS011;5728;42.722;23.258;2022-08-01T10:09:00;2.38;;;1.92;;
11346;SDS011;5728;42.722;23.258;2022-08-01T10:11:27;4.15;;;2.10;;
11346;SDS011;5728;42.722;23.258;2022-08-01T10:13:56;2.40;;;2.05;;
11346;SDS011;5728;42.722;23.258;2022-08-01T10:16:25;4.00;;;2.15;;
11346;SDS011;5728;42.722;23.258;2022-08-01T10:18:53;3.17;;;2.00;;
11346;SDS011;5728;42.722;23.258;2022-08-01T10:21:20;5.43;;;2.30;;
11346;SDS011;5728;42.722;23.258;2022-08-01T10:23:52;5.85;;;2.30;;
11346;SDS011;5728;42.722;23.258;2022-08-01T10:26:21;5.13;;;2.42;;
11346;SDS011;5728;42.722;23.258;2022-08-01T10:28:51;2.40;;;2.20;;
11346;SDS011;5728;42.722;23.258;2022-08-01T10:31:20;4.63;;;2.22;;
11346;SDS011;5728;42.722;23.258;2022-08-01T10:33:47;2.50;;;2.30;;
11346;SDS011;5728;42.722;23.258;2022-08-01T10:36:17;2.17;;;1.98;;
11346;SDS011;5728;42.722;23.258;2022-08-01T10:38:46;8.73;;;2.33;;
11346;SDS011;5728;42.722;23.258;2022-08-01T10:41:14;1.85;;;1.50;;
11346;SDS011;5728;42.722;23.258;2022-08-01T10:43:42;2.80;;;1.90;;
11346;SDS011;5728;42.722;23.258;2022-08-01T10:46:09;1.92;;;1.80;;
11346;SDS011;5728;42.722;23.258;2022-08-01T10:48:39;4.05;;;1.80;;
11346;SDS011;5728;42.722;23.258;2022-08-01T10:51:11;2.13;;;1.95;;
11346;SDS011;5728;42.722;23.258;2022-08-01T10:53:45;4.00;;;2.47;;
11346;SDS011;5728;42.722;23.258;2022-08-01T10:56:14;7.60;;;1.98;;
11346;SDS011;5728;42.722;23.258;2022-08-01T10:58:42;3.38;;;2.42;;
11346;SDS011;5728;42.722;23.258;2022-08-01T11:01:18;5.53;;;2.20;;
11346;SDS011;5728;42.722;23.258;2022-08-01T11:03:58;2.35;;;2.08;;
11346;SDS011;5728;42.722;23.258;2022-08-01T11:06:35;2.40;;;2.20;;
11346;SDS011;5728;42.722;23.258;2022-08-01T11:09:16;5.68;;;2.20;;
11346;SDS011;5728;42.722;23.258;2022-08-01T11:12:00;3.13;;;2.30;;
11346;SDS011;5728;42.722;23.258;2022-08-01T11:14:28;4.43;;;2.53;;
11346;SDS011;5728;42.722;23.258;2022-08-01T11:16:57;4.15;;;2.25;;
11346;SDS011;5728;42.722;23.258;2022-08-01T11:20:09;2.50;;;2.30;;
11346;SDS011;5728;42.722;23.258;2022-08-01T11:28:35;2.33;;;2.08;;
11346;SDS011;5728;42.722;23.258;2022-08-01T11:33:56;7.43;;;2.42;;
11346;SDS011;5728;42.722;23.258;2022-08-01T11:36:24;2.38;;;2.05;;
11346;SDS011;5728;42.722;23.258;2022-08-01T11:39:11;2.38;;;2.13;;
11346;SDS011;5728;42.722;23.258;2022-08-01T11:41:39;2.17;;;1.98;;
11346;SDS011;5728;42.722;23.258;2022-08-01T11:44:09;2.63;;;2.38;;
11346;SDS011;5728;42.722;23.258;2022-08-01T11:46:54;2.00;;;1.88;;
11346;SDS011;5728;42.722;23.258;2022-08-01T11:52:16;2.47;;;2.28;;
11346;SDS011;5728;42.722;23.258;2022-08-01T11:54:45;3.45;;;2.30;;
11346;SDS011;5728;42.722;23.258;2022-08-01T11:57:13;5.88;;;2.40;;
11346;SDS011;5728;42.722;23.258;2022-08-01T11:59:44;2.78;;;2.30;;
11346;SDS011;5728;42.722;23.258;2022-08-01T12:02:16;2.85;;;2.17;;
11346;SDS011;5728;42.722;23.258;2022-08-01T12:04:45;4.40;;;2.60;;
11346;SDS011;5728;42.722;23.258;2022-08-01T12:07:13;3.22;;;2.65;;
11346;SDS011;5728;42.722;23.258;2022-08-01T12:09:40;4.05;;;2.50;;
11346;SDS011;5728;42.722;23.258;2022-08-01T12:12:07;4.72;;;2.67;;
11346;SDS011;5728;42.722;23.258;2022-08-01T12:14:35;2.72;;;2.45;;
11346;SDS011;5728;42.722;23.258;2022-08-01T12:17:04;2.85;;;2.45;;
11346;SDS011;5728;42.722;23.258;2022-08-01T12:19:30;3.33;;;2.55;;
11346;SDS011;5728;42.722;23.258;2022-08-01T12:22:07;2.72;;;2.30;;
11346;SDS011;5728;42.722;23.258;2022-08-01T12:24:35;7.32;;;2.58;;
11346;SDS011;5728;42.722;23.258;2022-08-01T12:27:03;3.67;;;2.25;;
11346;SDS011;5728;42.722;23.258;2022-08-01T12:29:32;2.50;;;2.30;;
11346;SDS011;5728;42.722;23.258;2022-08-01T12:31:59;2.30;;;2.10;;
11346;SDS011;5728;42.722;23.258;2022-08-01T12:34:28;3.47;;;2.40;;
11346;SDS011;5728;42.722;23.258;2022-08-01T12:36:55;4.70;;;2.30;;
11346;SDS011;5728;42.722;23.258;2022-08-01T12:39:28;2.88;;;2.25;;
11346;SDS011;5728;42.722;23.258;2022-08-01T12:41:57;5.07;;;2.10;;
11346;SDS011;5728;42.722;23.258;2022-08-01T12:44:24;4.60;;;2.38;;
11346;SDS011;5728;42.722;23.258;2022-08-01T12:46:51;2.30;;;2.10;;
11346;SDS011;5728;42.722;23.258;2022-08-01T12:49:18;3.33;;;1.85;;
11346;SDS011;5728;42.722;23.258;2022-08-01T12:51:47;2.60;;;2.13;;
11346;SDS011;5728;42.722;23.258;2022-08-01T12:54:14;2.35;;;2.15;;
11346;SDS011;5728;42.722;23.258;2022-08-01T12:56:41;2.53;;;2.33;;
11346;SDS011;5728;42.722;23.258;2022-08-01T12:59:21;5.05;;;2.45;;
11346;SDS011;5728;42.722;23.258;2022-08-01T13:01:50;2.92;;;2.45;;
11346;SDS011;5728;42.722;23.258;2022-08-01T13:04:17;2.35;;;2.10;;
11346;SDS011;5728;42.722;23.258;2022-08-01T13:06:47;3.20;;;2.08;;
11346;SDS011;5728;42.722;23.258;2022-08-01T13:09:14;2.63;;;2.15;;
11346;SDS011;5728;42.722;23.258;2022-08-01T13:11:41;2.50;;;2.30;;
11346;SDS011;5728;42.722;23.258;2022-08-01T13:14:08;4.35;;;2.33;;
11346;SDS011;5728;42.722;23.258;2022-08-01T13:16:45;2.85;;;2.20;;
11346;SDS011;5728;42.722;23.258;2022-08-01T13:19:13;3.75;;;2.30;;
11346;SDS011;5728;42.722;23.258;2022-08-01T13:21:40;2.00;;;1.90;;
11346;SDS011;5728;42.722;23.258;2022-08-01T13:24:25;3.05;;;2.25;;
11346;SDS011;5728;42.722;23.258;2022-08-01T13:26:53;4.75;;;2.50;;
11346;SDS011;5728;42.722;23.258;2022-08-01T13:29:29;2.70;;;2.00;;
11346;SDS011;5728;42.722;23.258;2022-08-01T13:31:57;1.83;;;1.73;;
11346;SDS011;5728;42.722;23.258;2022-08-01T13:34:30;4.30;;;2.40;;
11346;SDS011;5728;42.722;23.258;2022-08-01T13:37:00;4.13;;;1.92;;
11346;SDS011;5728;42.722;23.258;2022-08-01T13:39:28;3.08;;;2.15;;
11346;SDS011;5728;42.722;23.258;2022-08-01T13:42:07;3.15;;;2.15;;
11346;SDS011;5728;42.722;23.258;2022-08-01T13:44:34;5.22;;;2.08;;
11346;SDS011;5728;42.722;23.258;2022-08-01T13:47:02;2.90;;;1.90;;
11346;SDS011;5728;42.722;23.258;2022-08-01T13:49:29;2.20;;;2.00;;
11346;SDS011;5728;42.722;23.258;2022-08-01T13:51:56;2.10;;;1.90;;
11346;SDS011;5728;42.722;23.258;2022-08-01T13:54:25;4.78;;;2.60;;
11346;SDS011;5728;42.722;23.258;2022-08-01T13:56:52;1.95;;;1.85;;
11346;SDS011;5728;42.722;23.258;2022-08-01T13:59:19;3.20;;;2.08;;
11346;SDS011;5728;42.722;23.258;2022-08-01T14:01:46;6.35;;;2.10;;
11346;SDS011;5728;42.722;23.258;2022-08-01T14:04:13;2.53;;;2.20;;
11346;SDS011;5728;42.722;23.258;2022-08-01T14:06:40;2.03;;;1.90;;
11346;SDS011;5728;42.722;23.258;2022-08-01T14:09:07;1.75;;;1.65;;
11346;SDS011;5728;42.722;23.258;2022-08-01T14:11:35;2.47;;;1.80;;
11346;SDS011;5728;42.722;23.258;2022-08-01T14:14:02;4.72;;;1.77;;
11346;SDS011;5728;42.722;23.258;2022-08-01T14:16:29;2.53;;;2.33;;
11346;SDS011;5728;42.722;23.258;2022-08-01T14:18:56;3.17;;;2.47;;
11346;SDS011;5728;42.722;23.258;2022-08-01T14:21:23;4.78;;;1.60;;
11346;SDS011;5728;42.722;23.258;2022-08-01T14:23:50;2.33;;;2.00;;
11346;SDS011;5728;42.722;23.258;2022-08-01T14:26:16;2.08;;;1.90;;
11346;SDS011;5728;42.722;23.258;2022-08-01T14:28:45;2.40;;;2.20;;
11346;SDS011;5728;42.722;23.258;2022-08-01T14:31:12;3.50;;;1.85;;
11346;SDS011;5728;42.722;23.258;2022-08-01T14:33:39;1.88;;;1.77;;
11346;SDS011;5728;42.722;23.258;2022-08-01T14:36:06;2.80;;;2.05;;
11346;SDS011;5728;42.722;23.258;2022-08-01T14:38:33;2.83;;;1.70;;
11346;SDS011;5728;42.722;23.258;2022-08-01T14:40:59;1.83;;;1.73;;
11346;SDS011;5728;42.722;23.258;2022-08-01T14:43:28;2.72;;;2.00;;
11346;SDS011;5728;42.722;23.258;2022-08-01T14:45:58;1.70;;;1.60;;
11346;SDS011;5728;42.722;23.258;2022-08-01T14:48:26;4.15;;;1.88;;
11346;SDS011;5728;42.722;23.258;2022-08-01T14:50:53;3.58;;;2.00;;
11346;SDS011;5728;42.722;23.258;2022-08-01T14:53:19;2.10;;;1.92;;
11346;SDS011;5728;42.722;23.258;2022-08-01T14:55:46;2.42;;;2.22;;
11346;SDS011;5728;42.722;23.258;2022-08-01T14:58:13;2.45;;;2.25;;
11346;SDS011;5728;42.722;23.258;2022-08-01T15:00:40;3.53;;;1.92;;
11346;SDS011;5728;42.722;23.258;2022-08-01T15:03:08;2.70;;;1.83;;
11346;SDS011;5728;42.722;23.258;2022-08-01T15:05:35;2.90;;;1.75;;
11346;SDS011;5728;42.722;23.258;2022-08-01T15:08:02;2.00;;;1.80;;
11346;SDS011;5728;42.722;23.258;2022-08-01T15:10:30;3.35;;;1.80;;